sensor_id;sensor_type;location;lat;lon;timestamp;temperature;humidity
46634;DHT22;32362;49.986;8.026;2023-09-18T00:23:09;21.20;92.70
46634;DHT22;32362;49.986;8.026;2023-09-18T00:49:51;21.10;92.80
46634;DHT22;32362;49.986;8.026;2023-09-18T01:43:36;20.70;92.50
46634;DHT22;32362;49.986;8.026;2023-09-18T02:10:18;21.00;93.00
46634;DHT22;32362;49.986;8.026;2023-09-18T02:36:58;20.10;97.40
46634;DHT22;32362;49.986;8.026;2023-09-18T03:03:39;20.30;96.80
46634;DHT22;32362;49.986;8.026;2023-09-18T03:30:23;20.20;97.80
46634;DHT22;32362;49.986;8.026;2023-09-18T03:57:05;20.10;97.80
46634;DHT22;32362;49.986;8.026;2023-09-18T04:23:45;20.10;97.30
46634;DHT22;32362;49.986;8.026;2023-09-18T04:50:27;20.20;96.90
46634;DHT22;32362;49.986;8.026;2023-09-18T05:17:10;20.40;98.00
46634;DHT22;32362;49.986;8.026;2023-09-18T05:43:52;20.20;98.70
46634;DHT22;32362;49.986;8.026;2023-09-18T06:10:34;20.10;98.10
46634;DHT22;32362;49.986;8.026;2023-09-18T06:37:15;20.10;97.80
46634;DHT22;32362;49.986;8.026;2023-09-18T07:03:56;20.70;97.20
46634;DHT22;32362;49.986;8.026;2023-09-18T07:30:37;21.20;95.00
46634;DHT22;32362;49.986;8.026;2023-09-18T07:57:17;21.70;93.80
46634;DHT22;32362;49.986;8.026;2023-09-18T08:23:59;22.30;92.30
46634;DHT22;32362;49.986;8.026;2023-09-18T08:50:40;21.80;91.80
46634;DHT22;32362;49.986;8.026;2023-09-18T09:17:22;21.60;90.60
46634;DHT22;32362;49.986;8.026;2023-09-18T09:44:05;22.10;89.60
46634;DHT22;32362;49.986;8.026;2023-09-18T10:10:48;21.80;90.10
46634;DHT22;32362;49.986;8.026;2023-09-18T10:37:30;22.00;90.10
46634;DHT22;32362;49.986;8.026;2023-09-18T11:04:20;22.50;88.80
46634;DHT22;32362;49.986;8.026;2023-09-18T11:31:02;22.30;88.10
46634;DHT22;32362;49.986;8.026;2023-09-18T11:57:43;23.00;86.60
46634;DHT22;32362;49.986;8.026;2023-09-18T12:24:27;23.50;83.90
46634;DHT22;32362;49.986;8.026;2023-09-18T12:51:08;23.80;83.20
46634;DHT22;32362;49.986;8.026;2023-09-18T13:17:50;24.40;79.10
46634;DHT22;32362;49.986;8.026;2023-09-18T13:44:32;24.10;78.40
46634;DHT22;32362;49.986;8.026;2023-09-18T14:11:12;25.30;75.00
46634;DHT22;32362;49.986;8.026;2023-09-18T14:37:53;27.50;66.10
46634;DHT22;32362;49.986;8.026;2023-09-18T15:04:34;26.10;69.40
46634;DHT22;32362;49.986;8.026;2023-09-18T15:31:15;27.00;68.10
46634;DHT22;32362;49.986;8.026;2023-09-18T15:57:55;28.10;64.90
46634;DHT22;32362;49.986;8.026;2023-09-18T16:24:37;25.80;70.50
46634;DHT22;32362;49.986;8.026;2023-09-18T16:51:17;24.40;73.50
46634;DHT22;32362;49.986;8.026;2023-09-18T17:17:58;24.10;76.30
46634;DHT22;32362;49.986;8.026;2023-09-18T17:44:40;23.10;82.60
46634;DHT22;32362;49.986;8.026;2023-09-18T18:11:21;21.30;91.30
46634;DHT22;32362;49.986;8.026;2023-09-18T18:38:02;21.70;91.70
46634;DHT22;32362;49.986;8.026;2023-09-18T19:04:45;21.30;92.30
46634;DHT22;32362;49.986;8.026;2023-09-18T19:31:26;20.60;93.90
46634;DHT22;32362;49.986;8.026;2023-09-18T19:58:06;19.80;95.40
46634;DHT22;32362;49.986;8.026;2023-09-18T20:24:49;19.20;96.70
46634;DHT22;32362;49.986;8.026;2023-09-18T20:51:31;19.10;96.60
46634;DHT22;32362;49.986;8.026;2023-09-18T21:18:13;19.30;96.30
46634;DHT22;32362;49.986;8.026;2023-09-18T21:44:53;18.00;99.60
46634;DHT22;32362;49.986;8.026;2023-09-18T22:11:34;17.60;99.90
46634;DHT22;32362;49.986;8.026;2023-09-18T23:05:20;17.30;99.90
46634;DHT22;32362;49.986;8.026;2023-09-18T23:32:02;17.40;99.90
46634;DHT22;32362;49.986;8.026;2023-09-18T23:58:43;17.30;99.90
